Latest Weather Observations for New May Downs

IDQ60801

Issued at 11:32 pm EST Saturday 6 February 2016 (issued every 30 minutes, with the page automatically refreshed every 10 minutes)

About weather observations | Map of weather stations | Latest weather observations for QLD | Other Formats
Station Details ID: 037059 Name: NEW MAY DOWNS Lat: -20.59 Lon: 139.34 Height: 392.0 m
Data from the previous 72 hours. | See also: Recent months at New May Downs
Date/Time
EST
Temp
°C
App
Temp
°C
Dew
Point
Rel
Hum
%
Delta-T
°C
Wind Press
QNH
hPa
Press
MSL
hPa
Rain
since 9 am
mm
Dir
 
Spd
km/h
Gust
km/h
Spd
kts
Gust
kts
06/11:30pm 27.9 27.7 11.9 37 9.4 WNW 4 4 2 2 - - 0.0
06/11:00pm 28.4 27.7 11.5 35 9.9 W 6 9 3 5 - - 0.0
06/10:30pm 29.1 28.5 10.3 31 10.8 S 4 6 2 3 - - 0.0
06/10:00pm 30.1 28.7 9.6 28 11.7 SW 7 9 4 5 - - 0.0
06/09:30pm 30.6 29.9 10.0 28 11.9 W 4 7 2 4 - - 0.0
06/09:00pm 30.1 30.6 11.6 32 10.9 CALM 0 0 0 0 - - 0.0
06/08:30pm 30.7 30.1 11.6 31 11.3 NW 6 7 3 4 - - 0.0
06/08:00pm 31.6 30.6 10.3 27 12.4 W 6 7 3 4 - - 0.0
06/07:30pm 32.9 31.4 9.0 23 13.7 WSW 7 9 4 5 - - 0.0
06/07:00pm 34.1 32.5 8.7 21 14.6 W 7 13 4 7 - - 0.0
06/06:30pm 34.7 32.1 7.7 19 15.3 W 11 19 6 10 - - 0.0
06/06:00pm 35.4 33.3 8.3 19 15.5 W 9 17 5 9 - - 0.0
06/05:30pm 35.2 32.3 8.1 19 15.5 WSW 13 19 7 10 - - 0.0
06/05:00pm 35.4 32.9 8.3 19 15.5 W 11 20 6 11 - - 0.0
06/04:30pm 35.4 33.9 8.3 19 15.5 NE 6 11 3 6 - - 0.0
06/04:00pm 35.2 32.5 7.3 18 15.7 W 11 19 6 10 - - 0.0
06/03:30pm 35.3 33.2 8.2 19 15.5 ENE 9 13 5 7 - - 0.0
06/03:00pm 35.3 33.4 8.9 20 15.3 ENE 9 19 5 10 - - 0.0
06/02:30pm 34.6 32.3 7.6 19 15.3 N 9 17 5 9 - - 0.0
06/02:00pm 34.5 32.8 8.3 20 15.0 W 7 26 4 14 - - 0.0
06/01:30pm 34.5 33.0 8.3 20 15.0 NNE 6 11 3 6 - - 0.0
06/01:00pm 34.1 32.9 8.0 20 14.8 SW 4 11 2 6 - - 0.0
06/12:30pm 33.0 30.6 7.1 20 14.4 SSW 9 19 5 10 - - 0.0
06/12:00pm 33.4 32.0 9.4 23 13.9 ENE 7 11 4 6 - - 0.0
06/11:30am 32.8 30.9 8.9 23 13.7 SSW 9 19 5 10 - - 0.0
06/11:00am 31.8 28.9 8.1 23 13.3 S 13 22 7 12 - - 0.0
06/10:30am 31.3 29.1 9.5 26 12.5 S 11 19 6 10 - - 0.0
06/10:00am 30.3 28.1 10.8 30 11.4 S 13 20 7 11 - - 0.0
06/09:30am 29.1 27.0 11.2 33 10.4 S 13 19 7 10 - - 0.0
06/09:00am 27.3 26.4 10.5 35 9.6 SW 6 7 3 4 - - 0.0
06/08:30am 25.7 23.8 9.1 35 9.2 SW 9 13 5 7 - - 0.0
06/08:00am 24.0 22.9 9.9 41 7.9 SW 6 9 3 5 - - 0.0
06/07:30am 22.2 22.4 13.0 56 5.4 SSW 4 6 2 3 - - 0.0
06/07:00am 20.1 21.4 15.1 73 3.0 WSW 2 4 1 2 - - 0.0
06/06:30am 19.9 20.6 13.4 66 3.8 WSW 2 4 1 2 - - 0.0
06/06:00am 20.5 20.7 13.0 62 4.3 WSW 4 6 2 3 - - 0.0
06/05:30am 20.4 20.5 11.6 57 5.0 W 2 4 1 2 - - 0.0
06/05:00am 21.2 20.5 11.5 54 5.5 SW 6 7 3 4 - - 0.0
06/04:30am 21.2 20.5 11.5 54 5.5 WSW 6 6 3 3 - - 0.0
06/04:00am 21.6 21.0 11.6 53 5.7 SSW 6 9 3 5 - - 0.0
06/03:30am 21.7 21.2 12.0 54 5.5 SW 6 7 3 4 - - 0.0
06/03:00am 22.3 21.4 11.4 50 6.2 SW 7 9 4 5 - - 0.0
06/02:30am 22.8 21.6 11.5 49 6.4 SW 9 13 5 7 - - 0.0
06/02:00am 22.8 21.6 11.5 49 6.4 WSW 9 13 5 7 - - 0.0
06/01:30am 23.2 21.9 11.3 47 6.8 SW 9 13 5 7 - - 0.0
06/01:00am 23.9 22.5 10.9 44 7.4 SW 9 13 5 7 - - 0.0
06/12:30am 24.2 22.8 10.8 43 7.6 WSW 9 13 5 7 - - 0.0
06/12:00am 24.3 23.0 9.8 40 8.1 WSW 7 9 4 5 - - 0.0
 
Date/Time
EST
Temp
°C
App
Temp
°C
Dew
Point
Rel
Hum
%
Delta-T
°C
Wind Press
QNH
hPa
Press
MSL
hPa
Rain
since 9 am
mm
Dir
 
Spd
km/h
Gust
km/h
Spd
kts
Gust
kts
05/11:30pm 25.1 23.4 9.8 38 8.6 SW 9 11 5 6 - - 0.0
05/11:00pm 25.7 23.8 9.1 35 9.2 SSW 9 13 5 7 - - 0.0
05/10:30pm 26.2 24.4 9.5 35 9.4 SSW 9 13 5 7 - - 0.0
05/10:00pm 26.8 24.7 9.6 34 9.7 SSW 11 13 6 7 - - 0.0
05/09:30pm 27.6 25.0 9.4 32 10.2 SSW 13 19 7 10 - - 0.0
05/09:00pm 27.8 25.4 10.1 33 10.1 SSW 13 19 7 10 - - 0.0
05/08:30pm 28.3 26.2 9.6 31 10.6 SW 11 17 6 9 - - 0.0
05/08:00pm 29.2 27.0 9.3 29 11.3 SW 11 19 6 10 - - 0.0
05/07:30pm 30.1 27.7 8.5 26 12.1 SW 11 19 6 10 - - 0.0
05/07:00pm 31.4 28.0 7.8 23 13.2 SSW 15 24 8 13 - - 0.0
05/06:30pm 31.9 27.6 6.9 21 13.8 SSW 19 26 10 14 - - 0.0
05/06:00pm 32.6 29.3 8.1 22 13.8 SSW 15 24 8 13 - - 0.0
05/05:30pm 32.4 28.5 7.3 21 14.0 SSE 17 26 9 14 - - 0.0
05/05:00pm 33.1 29.4 7.9 21 14.2 SSW 17 30 9 16 - - 0.0
05/04:30pm 33.1 30.3 8.5 22 14.0 SSE 13 19 7 10 - - 0.0
05/04:00pm 33.4 30.3 8.8 22 14.1 SSW 15 26 8 14 - - 0.0
05/03:30pm 32.8 30.1 8.9 23 13.7 S 13 30 7 16 - - 0.0
05/03:00pm 33.0 30.1 9.7 24 13.5 WSW 15 30 8 16 - - 0.0
05/02:30pm 33.1 30.4 10.4 25 13.3 SSE 15 24 8 13 - - 0.0
05/02:00pm 32.6 29.6 10.6 26 12.9 SSE 17 32 9 17 - - 0.0
05/01:30pm 31.8 28.8 10.5 27 12.4 S 17 32 9 17 - - 0.0
05/01:00pm 32.1 29.7 10.2 26 12.7 S 13 28 7 15 - - 0.0
05/12:30pm 31.2 27.3 8.8 25 12.7 S 19 26 10 14 - - 0.0
05/12:00pm 31.2 28.6 9.4 26 12.5 S 13 26 7 14 - - 0.0
05/11:30am 30.5 27.7 9.9 28 11.9 S 15 28 8 15 - - 0.0
05/11:00am 30.0 27.7 10.5 30 11.3 SSE 13 22 7 12 - - 0.0
05/10:30am 28.9 26.4 9.6 30 11.0 SSE 13 20 7 11 - - 0.0
05/10:00am 27.9 25.1 10.1 33 10.2 S 15 22 8 12 - - 0.0
05/09:30am 26.8 24.2 9.2 33 9.8 SSE 13 20 7 11 - - 0.0
05/09:00am 26.0 23.5 9.8 36 9.1 S 13 20 7 11 - - 0.0
05/08:30am 25.1 22.5 10.6 40 8.2 SSE 15 24 8 13 - - 0.0
05/08:00am 23.9 21.7 10.9 44 7.4 S 13 19 7 10 - - 0.0
05/07:30am 22.6 21.4 11.7 50 6.2 SSW 9 15 5 8 - - 0.0
05/07:00am 21.4 20.9 12.5 57 5.1 SW 7 9 4 5 - - 0.0
05/06:30am 21.1 20.7 12.5 58 4.9 SSW 6 9 3 5 - - 0.0
05/06:00am 21.6 21.1 12.7 57 5.1 SW 7 11 4 6 - - 0.0
05/05:30am 22.6 21.1 12.0 51 6.1 SSW 11 17 6 9 - - 0.0
05/05:00am 22.8 21.3 11.8 50 6.3 SSW 11 13 6 7 - - 0.0
05/04:30am 22.5 21.7 13.0 55 5.5 S 9 13 5 7 - - 0.0
05/04:00am 22.6 22.1 13.9 58 5.2 S 9 13 5 7 - - 0.0
05/03:30am 22.7 22.5 14.8 61 4.8 SSW 9 13 5 7 - - 0.0
05/03:00am 23.0 23.0 15.1 61 4.8 SSW 9 11 5 6 - - 0.0
05/02:30am 23.3 23.6 15.1 60 5.0 SSW 7 11 4 6 - - 0.0
05/02:00am 23.8 24.1 15.0 57 5.3 SSW 7 9 4 5 - - 0.0
05/01:30am 24.3 24.6 15.0 56 5.7 SSW 7 9 4 5 - - 0.0
05/01:00am 24.8 24.7 14.9 54 6.0 SSW 9 13 5 7 - - 0.0
05/12:30am 24.7 24.7 15.3 56 5.8 SSW 9 11 5 6 - - 0.0
05/12:00am 24.7 25.2 15.6 57 5.6 SSW 7 11 4 6 - - 0.0
 
Date/Time
EST
Temp
°C
App
Temp
°C
Dew
Point
Rel
Hum
%
Delta-T
°C
Wind Press
QNH
hPa
Press
MSL
hPa
Rain
since 9 am
mm
Dir
 
Spd
km/h
Gust
km/h
Spd
kts
Gust
kts
04/11:30pm 25.0 25.5 15.6 56 5.8 SW 7 11 4 6 - - 0.0
04/11:00pm 25.5 25.9 15.2 53 6.3 SW 7 9 4 5 - - 0.0
04/10:30pm 25.9 26.2 15.0 51 6.7 SW 7 13 4 7 - - 0.0
04/10:00pm 26.9 26.2 14.3 46 7.7 SSW 11 19 6 10 - - 0.0
04/09:30pm 27.2 26.4 13.9 44 8.0 SSW 11 17 6 9 - - 0.0
04/09:00pm 27.6 26.5 14.3 44 8.1 SSW 13 19 7 10 - - 0.0
04/08:30pm 28.1 26.9 14.0 42 8.6 SSW 13 17 7 9 - - 0.0
04/08:00pm 28.6 26.8 14.4 41 8.7 SSW 17 22 9 12 - - 0.0
04/07:30pm 29.1 26.9 14.5 41 9.0 SSW 19 28 10 15 - - 0.0
04/07:00pm 29.9 27.8 14.8 39 9.3 SSW 19 32 10 17 - - 0.0
04/06:30pm 30.4 28.2 14.5 38 9.8 S 19 32 10 17 - - 0.0
04/06:00pm 31.3 29.3 14.9 37 10.2 SSW 19 32 10 17 - - 0.0
04/05:30pm 31.4 29.2 15.0 37 10.2 S 20 35 11 19 - - 0.0
04/05:00pm 31.5 29.5 15.0 36 10.3 SSW 19 33 10 18 - - 0.0
04/04:30pm 31.8 29.9 15.3 37 10.4 S 19 33 10 18 - - 0.0
04/04:00pm 32.4 31.1 15.8 36 10.5 S 17 30 9 16 - - 0.0
04/03:30pm 31.6 30.0 16.0 39 9.9 SSW 19 26 10 14 - - 0.0
04/03:00pm 31.7 31.0 16.4 39 9.8 SSW 15 24 8 13 - - 0.0
04/02:30pm 31.0 30.1 15.8 40 9.6 SSE 15 26 8 14 - - 0.0
04/02:00pm 30.9 29.5 16.5 42 9.2 S 19 30 10 16 - - 0.0
04/01:30pm 30.6 29.3 17.3 45 8.6 S 20 32 11 17 - - 0.0
04/01:00pm 29.6 28.0 16.4 45 8.4 SSW 20 30 11 16 - - 0.0
04/12:30pm 29.5 28.5 16.7 46 8.1 S 17 32 9 17 - - 0.0
04/12:00pm 27.8 26.0 15.5 47 7.6 S 19 30 10 16 - - 0.0
04/11:30am 27.8 26.3 16.4 50 7.2 S 19 30 10 16 - - 0.0
04/11:00am 26.7 26.0 16.3 53 6.5 S 15 24 8 13 - - 0.0
04/10:30am 25.8 25.3 16.9 58 5.6 S 15 22 8 12 - - 0.0
04/10:00am 24.6 24.2 17.1 63 4.7 S 15 20 8 11 - - 0.0
04/09:30am 24.0 23.9 17.0 65 4.4 S 13 20 7 11 - - 0.0
04/09:00am 22.6 22.6 17.1 71 3.4 S 13 20 7 11 - - 12.8
04/08:30am 22.2 22.4 17.6 75 2.9 SSW 13 24 7 13 - - 12.8
04/08:00am 21.7 22.4 17.9 79 2.4 SSW 11 17 6 9 - - 12.8
04/07:30am 21.3 22.2 18.3 83 1.9 S 11 19 6 10 - - 12.8
04/07:00am 21.0 21.9 18.4 85 1.6 SSW 11 15 6 8 - - 12.8
04/06:30am 20.9 21.9 18.7 87 1.4 SSW 11 20 6 11 - - 12.8
04/06:00am 20.9 20.8 18.8 88 1.3 SSW 17 24 9 13 - - 12.8
04/05:30am 21.5 22.9 19.6 89 1.2 SSW 11 19 6 10 - - 12.8
04/05:00am 21.5 22.8 19.4 88 1.4 S 11 17 6 9 - - 12.8
04/04:30am 21.4 22.0 19.5 89 1.2 S 15 24 8 13 - - 12.8
04/04:00am 21.2 22.6 19.5 90 1.1 S 11 19 6 10 - - 12.8
04/03:30am 21.3 21.9 19.4 89 1.2 S 15 22 8 12 - - 12.8
04/03:00am 21.4 21.8 19.0 86 1.5 S 15 20 8 11 - - 12.8
04/02:30am 21.4 22.4 19.5 89 1.2 S 13 19 7 10 - - 12.8
04/02:00am 21.3 22.8 19.8 91 1.0 S 11 17 6 9 - - 12.8
04/01:30am 21.5 23.6 20.1 92 0.9 S 9 15 5 8 - - 12.8
04/01:00am 21.4 22.9 20.6 95 0.5 S 13 19 7 10 - - 12.8
04/12:30am 21.3 22.8 20.5 95 0.5 SSW 13 20 7 11 - - 12.8
04/12:00am 21.7 22.3 20.2 91 1.0 S 17 24 9 13 - - 12.8

Other Formats:

Comma delimited format used in spreadsheet applications
http://www.bom.gov.au/fwo/IDQ60801/IDQ60801.94349.axf

JavaScript Object Notation format (JSON) in row-major order
http://www.bom.gov.au/fwo/IDQ60801/IDQ60801.94349.json